sensor_id;sensor_type;location;lat;lon;timestamp;temperature;humidity
16404;DHT22;8311;50.158;8.642;2022-08-25T00:00:41;27.70;39.00
16404;DHT22;8311;50.158;8.642;2022-08-25T00:03:36;27.70;39.10
16404;DHT22;8311;50.158;8.642;2022-08-25T00:06:30;27.70;39.10
16404;DHT22;8311;50.158;8.642;2022-08-25T00:09:24;27.70;39.10
16404;DHT22;8311;50.158;8.642;2022-08-25T00:12:18;27.70;39.10
16404;DHT22;8311;50.158;8.642;2022-08-25T00:15:12;27.70;39.10
16404;DHT22;8311;50.158;8.642;2022-08-25T00:18:06;27.70;39.10
16404;DHT22;8311;50.158;8.642;2022-08-25T00:21:11;27.70;39.10
16404;DHT22;8311;50.158;8.642;2022-08-25T00:24:05;27.70;39.10
16404;DHT22;8311;50.158;8.642;2022-08-25T00:27:00;27.70;39.10
16404;DHT22;8311;50.158;8.642;2022-08-25T00:29:54;27.70;39.10
16404;DHT22;8311;50.158;8.642;2022-08-25T00:32:47;27.70;39.10
16404;DHT22;8311;50.158;8.642;2022-08-25T00:35:49;27.70;39.10
16404;DHT22;8311;50.158;8.642;2022-08-25T00:38:44;27.70;39.10
16404;DHT22;8311;50.158;8.642;2022-08-25T00:41:39;27.70;39.10
16404;DHT22;8311;50.158;8.642;2022-08-25T00:44:33;27.70;39.10
16404;DHT22;8311;50.158;8.642;2022-08-25T00:47:27;27.70;39.10
16404;DHT22;8311;50.158;8.642;2022-08-25T00:50:21;27.70;39.10
16404;DHT22;8311;50.158;8.642;2022-08-25T00:53:18;27.70;39.10
16404;DHT22;8311;50.158;8.642;2022-08-25T00:56:12;27.70;39.10
16404;DHT22;8311;50.158;8.642;2022-08-25T00:59:09;27.70;39.10
16404;DHT22;8311;50.158;8.642;2022-08-25T01:02:05;27.70;39.20
16404;DHT22;8311;50.158;8.642;2022-08-25T01:05:05;27.60;39.10
16404;DHT22;8311;50.158;8.642;2022-08-25T01:07:59;27.70;39.10
16404;DHT22;8311;50.158;8.642;2022-08-25T01:11:01;27.70;39.20
16404;DHT22;8311;50.158;8.642;2022-08-25T01:13:56;27.60;39.20
16404;DHT22;8311;50.158;8.642;2022-08-25T01:16:54;27.70;39.20
16404;DHT22;8311;50.158;8.642;2022-08-25T01:19:50;27.70;39.20
16404;DHT22;8311;50.158;8.642;2022-08-25T01:22:45;27.70;39.20
16404;DHT22;8311;50.158;8.642;2022-08-25T01:25:52;27.70;39.20
16404;DHT22;8311;50.158;8.642;2022-08-25T01:28:49;27.70;39.30
16404;DHT22;8311;50.158;8.642;2022-08-25T01:32:03;27.70;39.30
16404;DHT22;8311;50.158;8.642;2022-08-25T01:34:58;27.60;39.20
16404;DHT22;8311;50.158;8.642;2022-08-25T01:37:52;27.70;39.30
16404;DHT22;8311;50.158;8.642;2022-08-25T01:40:46;27.70;39.30
16404;DHT22;8311;50.158;8.642;2022-08-25T01:43:40;27.70;39.40
16404;DHT22;8311;50.158;8.642;2022-08-25T01:46:34;27.70;39.30
16404;DHT22;8311;50.158;8.642;2022-08-25T01:49:28;27.70;39.30
16404;DHT22;8311;50.158;8.642;2022-08-25T01:52:24;27.60;39.30
16404;DHT22;8311;50.158;8.642;2022-08-25T01:55:21;27.70;39.40
16404;DHT22;8311;50.158;8.642;2022-08-25T01:58:15;27.70;39.40
16404;DHT22;8311;50.158;8.642;2022-08-25T02:01:10;27.60;39.40
16404;DHT22;8311;50.158;8.642;2022-08-25T02:04:04;27.60;39.40
16404;DHT22;8311;50.158;8.642;2022-08-25T02:06:59;27.60;39.40
16404;DHT22;8311;50.158;8.642;2022-08-25T02:09:52;27.60;39.40
16404;DHT22;8311;50.158;8.642;2022-08-25T02:12:46;27.60;39.40
16404;DHT22;8311;50.158;8.642;2022-08-25T02:15:41;27.60;39.40
16404;DHT22;8311;50.158;8.642;2022-08-25T02:18:35;27.60;39.40
16404;DHT22;8311;50.158;8.642;2022-08-25T02:21:28;27.60;39.50
16404;DHT22;8311;50.158;8.642;2022-08-25T02:24:23;27.60;39.50
16404;DHT22;8311;50.158;8.642;2022-08-25T02:27:16;27.60;39.50
16404;DHT22;8311;50.158;8.642;2022-08-25T02:30:11;27.60;39.50
16404;DHT22;8311;50.158;8.642;2022-08-25T02:33:05;27.60;39.50
16404;DHT22;8311;50.158;8.642;2022-08-25T02:35:59;27.60;39.50
16404;DHT22;8311;50.158;8.642;2022-08-25T02:38:53;27.60;39.50
16404;DHT22;8311;50.158;8.642;2022-08-25T02:41:46;27.60;39.50
16404;DHT22;8311;50.158;8.642;2022-08-25T02:44:40;27.60;39.50
16404;DHT22;8311;50.158;8.642;2022-08-25T02:47:34;27.60;39.60
16404;DHT22;8311;50.158;8.642;2022-08-25T02:50:29;27.60;39.60
16404;DHT22;8311;50.158;8.642;2022-08-25T02:53:23;27.60;39.60
16404;DHT22;8311;50.158;8.642;2022-08-25T02:56:18;27.60;39.50
16404;DHT22;8311;50.158;8.642;2022-08-25T02:59:11;27.60;39.60
16404;DHT22;8311;50.158;8.642;2022-08-25T03:02:04;27.60;39.60
16404;DHT22;8311;50.158;8.642;2022-08-25T03:04:59;27.60;39.60
16404;DHT22;8311;50.158;8.642;2022-08-25T03:07:52;27.60;39.60
16404;DHT22;8311;50.158;8.642;2022-08-25T03:10:45;27.60;39.60
16404;DHT22;8311;50.158;8.642;2022-08-25T03:13:38;27.60;39.60
16404;DHT22;8311;50.158;8.642;2022-08-25T03:16:31;27.60;39.60
16404;DHT22;8311;50.158;8.642;2022-08-25T03:19:24;27.60;39.60
16404;DHT22;8311;50.158;8.642;2022-08-25T03:22:18;27.60;39.60
16404;DHT22;8311;50.158;8.642;2022-08-25T03:25:12;27.60;39.60
16404;DHT22;8311;50.158;8.642;2022-08-25T03:28:23;27.60;39.60
16404;DHT22;8311;50.158;8.642;2022-08-25T03:31:21;27.60;39.60
16404;DHT22;8311;50.158;8.642;2022-08-25T03:34:16;27.60;39.70
16404;DHT22;8311;50.158;8.642;2022-08-25T03:37:11;27.60;39.60
16404;DHT22;8311;50.158;8.642;2022-08-25T03:40:08;27.60;39.70
16404;DHT22;8311;50.158;8.642;2022-08-25T03:43:07;27.60;39.70
16404;DHT22;8311;50.158;8.642;2022-08-25T03:46:01;27.60;39.70
16404;DHT22;8311;50.158;8.642;2022-08-25T03:48:55;27.60;39.70
16404;DHT22;8311;50.158;8.642;2022-08-25T03:51:51;27.60;39.70
16404;DHT22;8311;50.158;8.642;2022-08-25T03:54:44;27.60;39.70
16404;DHT22;8311;50.158;8.642;2022-08-25T03:57:38;27.60;39.70
16404;DHT22;8311;50.158;8.642;2022-08-25T04:00:31;27.60;39.70
16404;DHT22;8311;50.158;8.642;2022-08-25T04:03:25;27.60;39.60
16404;DHT22;8311;50.158;8.642;2022-08-25T04:06:20;27.60;39.70
16404;DHT22;8311;50.158;8.642;2022-08-25T04:09:13;27.60;39.70
16404;DHT22;8311;50.158;8.642;2022-08-25T04:12:07;27.60;39.60
16404;DHT22;8311;50.158;8.642;2022-08-25T04:15:01;27.60;39.60
16404;DHT22;8311;50.158;8.642;2022-08-25T04:17:55;27.60;39.60
16404;DHT22;8311;50.158;8.642;2022-08-25T04:20:49;27.60;39.60
16404;DHT22;8311;50.158;8.642;2022-08-25T04:23:43;27.60;39.60
16404;DHT22;8311;50.158;8.642;2022-08-25T04:26:41;27.60;39.60
16404;DHT22;8311;50.158;8.642;2022-08-25T04:29:36;27.60;39.60
16404;DHT22;8311;50.158;8.642;2022-08-25T04:32:30;27.60;39.60
16404;DHT22;8311;50.158;8.642;2022-08-25T04:35:24;27.60;39.60
16404;DHT22;8311;50.158;8.642;2022-08-25T04:38:17;27.60;39.70
16404;DHT22;8311;50.158;8.642;2022-08-25T04:41:11;27.60;39.60
16404;DHT22;8311;50.158;8.642;2022-08-25T04:44:05;27.60;39.70
16404;DHT22;8311;50.158;8.642;2022-08-25T04:46:59;27.60;39.60
16404;DHT22;8311;50.158;8.642;2022-08-25T04:49:54;27.60;39.60
16404;DHT22;8311;50.158;8.642;2022-08-25T04:52:48;27.60;39.70
16404;DHT22;8311;50.158;8.642;2022-08-25T04:55:41;27.60;39.60
16404;DHT22;8311;50.158;8.642;2022-08-25T04:58:38;27.60;39.70
16404;DHT22;8311;50.158;8.642;2022-08-25T05:01:33;27.60;39.70
16404;DHT22;8311;50.158;8.642;2022-08-25T05:04:27;27.60;39.70
16404;DHT22;8311;50.158;8.642;2022-08-25T05:07:21;27.60;39.70
16404;DHT22;8311;50.158;8.642;2022-08-25T05:10:14;27.60;39.70
16404;DHT22;8311;50.158;8.642;2022-08-25T05:13:07;27.50;39.60
16404;DHT22;8311;50.158;8.642;2022-08-25T05:16:00;27.60;39.80
16404;DHT22;8311;50.158;8.642;2022-08-25T05:18:54;27.50;39.70
16404;DHT22;8311;50.158;8.642;2022-08-25T05:21:48;27.50;39.70
16404;DHT22;8311;50.158;8.642;2022-08-25T05:24:43;27.60;39.80
16404;DHT22;8311;50.158;8.642;2022-08-25T05:27:37;27.50;39.70
16404;DHT22;8311;50.158;8.642;2022-08-25T05:30:30;27.50;39.70
16404;DHT22;8311;50.158;8.642;2022-08-25T05:33:24;27.50;39.80
16404;DHT22;8311;50.158;8.642;2022-08-25T05:36:22;27.50;39.80
16404;DHT22;8311;50.158;8.642;2022-08-25T05:39:16;27.50;39.80
16404;DHT22;8311;50.158;8.642;2022-08-25T05:42:10;27.50;39.80
16404;DHT22;8311;50.158;8.642;2022-08-25T05:45:05;27.50;39.80
16404;DHT22;8311;50.158;8.642;2022-08-25T05:48:06;27.60;39.90
16404;DHT22;8311;50.158;8.642;2022-08-25T05:51:00;27.60;39.90
16404;DHT22;8311;50.158;8.642;2022-08-25T05:53:54;27.50;39.90
16404;DHT22;8311;50.158;8.642;2022-08-25T05:56:48;27.50;39.90
16404;DHT22;8311;50.158;8.642;2022-08-25T05:59:42;27.50;39.90
16404;DHT22;8311;50.158;8.642;2022-08-25T06:02:36;27.50;39.90
16404;DHT22;8311;50.158;8.642;2022-08-25T06:05:34;27.50;40.00
16404;DHT22;8311;50.158;8.642;2022-08-25T06:08:27;27.50;40.00
16404;DHT22;8311;50.158;8.642;2022-08-25T06:11:24;27.50;40.10
16404;DHT22;8311;50.158;8.642;2022-08-25T06:14:19;27.50;40.00
16404;DHT22;8311;50.158;8.642;2022-08-25T06:17:13;27.50;40.10
16404;DHT22;8311;50.158;8.642;2022-08-25T06:20:10;27.50;40.10
16404;DHT22;8311;50.158;8.642;2022-08-25T06:23:03;27.50;40.10
16404;DHT22;8311;50.158;8.642;2022-08-25T06:25:56;27.50;40.10
16404;DHT22;8311;50.158;8.642;2022-08-25T06:28:49;27.50;40.10
16404;DHT22;8311;50.158;8.642;2022-08-25T06:31:42;27.50;40.10
16404;DHT22;8311;50.158;8.642;2022-08-25T06:34:37;27.50;40.20
16404;DHT22;8311;50.158;8.642;2022-08-25T06:37:31;27.50;40.20
16404;DHT22;8311;50.158;8.642;2022-08-25T06:40:24;27.50;40.30
16404;DHT22;8311;50.158;8.642;2022-08-25T06:43:18;27.50;40.30
16404;DHT22;8311;50.158;8.642;2022-08-25T06:46:13;27.50;40.40
16404;DHT22;8311;50.158;8.642;2022-08-25T06:49:06;27.50;40.40
16404;DHT22;8311;50.158;8.642;2022-08-25T06:52:02;27.50;40.20
16404;DHT22;8311;50.158;8.642;2022-08-25T06:54:55;27.50;40.40
16404;DHT22;8311;50.158;8.642;2022-08-25T06:57:51;27.50;40.30
16404;DHT22;8311;50.158;8.642;2022-08-25T07:00:46;27.50;40.40
16404;DHT22;8311;50.158;8.642;2022-08-25T07:03:40;27.50;40.40
16404;DHT22;8311;50.158;8.642;2022-08-25T07:06:34;27.50;40.80
16404;DHT22;8311;50.158;8.642;2022-08-25T07:09:29;27.50;40.90
16404;DHT22;8311;50.158;8.642;2022-08-25T07:12:28;27.50;41.50
16404;DHT22;8311;50.158;8.642;2022-08-25T07:15:21;27.60;41.30
16404;DHT22;8311;50.158;8.642;2022-08-25T07:18:14;27.50;40.80
16404;DHT22;8311;50.158;8.642;2022-08-25T07:21:07;27.50;41.50
16404;DHT22;8311;50.158;8.642;2022-08-25T07:24:04;27.50;41.50
16404;DHT22;8311;50.158;8.642;2022-08-25T07:27:00;27.60;42.00
16404;DHT22;8311;50.158;8.642;2022-08-25T07:29:53;27.60;42.30
16404;DHT22;8311;50.158;8.642;2022-08-25T07:32:46;27.60;42.70
16404;DHT22;8311;50.158;8.642;2022-08-25T07:35:46;27.50;42.40
16404;DHT22;8311;50.158;8.642;2022-08-25T07:38:41;27.60;42.70
16404;DHT22;8311;50.158;8.642;2022-08-25T07:41:37;27.60;43.00
16404;DHT22;8311;50.158;8.642;2022-08-25T07:44:33;27.60;42.50
16404;DHT22;8311;50.158;8.642;2022-08-25T07:47:27;27.60;42.70
16404;DHT22;8311;50.158;8.642;2022-08-25T07:50:20;27.70;43.00
16404;DHT22;8311;50.158;8.642;2022-08-25T07:53:14;27.60;42.50
16404;DHT22;8311;50.158;8.642;2022-08-25T07:56:10;27.70;43.20
16404;DHT22;8311;50.158;8.642;2022-08-25T07:59:04;27.70;42.60
16404;DHT22;8311;50.158;8.642;2022-08-25T08:02:05;27.70;42.80
16404;DHT22;8311;50.158;8.642;2022-08-25T08:04:58;27.70;42.70
16404;DHT22;8311;50.158;8.642;2022-08-25T08:07:53;27.70;42.70
16404;DHT22;8311;50.158;8.642;2022-08-25T08:10:47;27.80;43.00
16404;DHT22;8311;50.158;8.642;2022-08-25T08:13:56;27.80;43.00
16404;DHT22;8311;50.158;8.642;2022-08-25T08:16:50;27.80;43.20
16404;DHT22;8311;50.158;8.642;2022-08-25T08:19:47;27.80;43.20
16404;DHT22;8311;50.158;8.642;2022-08-25T08:22:41;27.90;43.30
16404;DHT22;8311;50.158;8.642;2022-08-25T08:25:36;27.90;43.00
16404;DHT22;8311;50.158;8.642;2022-08-25T08:28:29;27.90;43.20
16404;DHT22;8311;50.158;8.642;2022-08-25T08:31:24;27.90;43.30
16404;DHT22;8311;50.158;8.642;2022-08-25T08:34:18;27.90;43.40
16404;DHT22;8311;50.158;8.642;2022-08-25T08:37:16;28.00;43.50
16404;DHT22;8311;50.158;8.642;2022-08-25T08:40:15;28.00;43.40
16404;DHT22;8311;50.158;8.642;2022-08-25T08:43:14;28.00;43.70
16404;DHT22;8311;50.158;8.642;2022-08-25T08:46:09;28.00;43.60
16404;DHT22;8311;50.158;8.642;2022-08-25T08:49:05;28.10;43.50
16404;DHT22;8311;50.158;8.642;2022-08-25T08:52:03;28.10;43.80
16404;DHT22;8311;50.158;8.642;2022-08-25T08:55:02;28.10;43.70
16404;DHT22;8311;50.158;8.642;2022-08-25T08:57:59;28.10;43.70
16404;DHT22;8311;50.158;8.642;2022-08-25T09:00:56;28.20;43.70
16404;DHT22;8311;50.158;8.642;2022-08-25T09:03:54;28.20;43.80
16404;DHT22;8311;50.158;8.642;2022-08-25T09:06:49;28.20;44.10
16404;DHT22;8311;50.158;8.642;2022-08-25T09:09:43;28.20;43.70
16404;DHT22;8311;50.158;8.642;2022-08-25T09:12:43;28.20;43.70
16404;DHT22;8311;50.158;8.642;2022-08-25T09:15:46;28.20;43.70
16404;DHT22;8311;50.158;8.642;2022-08-25T09:19:11;28.30;43.80
16404;DHT22;8311;50.158;8.642;2022-08-25T09:22:21;28.30;43.80
16404;DHT22;8311;50.158;8.642;2022-08-25T09:25:32;28.30;43.60
16404;DHT22;8311;50.158;8.642;2022-08-25T09:28:48;28.30;43.70
16404;DHT22;8311;50.158;8.642;2022-08-25T09:31:42;28.40;43.70
16404;DHT22;8311;50.158;8.642;2022-08-25T09:34:36;28.40;43.70
16404;DHT22;8311;50.158;8.642;2022-08-25T09:37:29;28.40;43.40
16404;DHT22;8311;50.158;8.642;2022-08-25T09:40:23;28.40;43.50
16404;DHT22;8311;50.158;8.642;2022-08-25T09:43:20;28.40;43.40
16404;DHT22;8311;50.158;8.642;2022-08-25T09:46:22;28.40;43.40
16404;DHT22;8311;50.158;8.642;2022-08-25T09:49:17;28.50;43.40
16404;DHT22;8311;50.158;8.642;2022-08-25T09:52:30;28.50;43.40
16404;DHT22;8311;50.158;8.642;2022-08-25T09:55:28;28.50;43.20
16404;DHT22;8311;50.158;8.642;2022-08-25T09:58:23;28.50;43.20
16404;DHT22;8311;50.158;8.642;2022-08-25T10:01:21;28.50;43.10
16404;DHT22;8311;50.158;8.642;2022-08-25T10:04:24;28.60;43.10
16404;DHT22;8311;50.158;8.642;2022-08-25T10:07:22;28.60;43.00
16404;DHT22;8311;50.158;8.642;2022-08-25T10:10:23;28.60;42.90
16404;DHT22;8311;50.158;8.642;2022-08-25T10:13:34;28.50;42.90
16404;DHT22;8311;50.158;8.642;2022-08-25T10:16:30;28.60;43.10
16404;DHT22;8311;50.158;8.642;2022-08-25T10:19:28;28.60;43.10
16404;DHT22;8311;50.158;8.642;2022-08-25T10:22:22;28.60;42.90
16404;DHT22;8311;50.158;8.642;2022-08-25T10:25:23;28.60;43.00
16404;DHT22;8311;50.158;8.642;2022-08-25T10:28:26;28.60;43.00
16404;DHT22;8311;50.158;8.642;2022-08-25T10:31:25;28.60;42.90
16404;DHT22;8311;50.158;8.642;2022-08-25T10:34:37;28.70;43.70
16404;DHT22;8311;50.158;8.642;2022-08-25T10:37:42;28.70;43.00
16404;DHT22;8311;50.158;8.642;2022-08-25T10:40:45;28.70;42.90
16404;DHT22;8311;50.158;8.642;2022-08-25T10:43:42;28.80;42.90
16404;DHT22;8311;50.158;8.642;2022-08-25T10:46:42;28.70;42.80
16404;DHT22;8311;50.158;8.642;2022-08-25T10:49:45;28.70;42.70
16404;DHT22;8311;50.158;8.642;2022-08-25T10:52:56;28.70;42.80
16404;DHT22;8311;50.158;8.642;2022-08-25T10:56:06;28.70;42.70
16404;DHT22;8311;50.158;8.642;2022-08-25T10:59:20;28.70;42.60
16404;DHT22;8311;50.158;8.642;2022-08-25T11:05:57;28.70;42.70
16404;DHT22;8311;50.158;8.642;2022-08-25T11:08:56;28.70;42.70
16404;DHT22;8311;50.158;8.642;2022-08-25T11:11:53;28.60;42.70
16404;DHT22;8311;50.158;8.642;2022-08-25T11:14:50;28.70;42.70
16404;DHT22;8311;50.158;8.642;2022-08-25T11:17:50;28.70;42.90
16404;DHT22;8311;50.158;8.642;2022-08-25T11:20:58;28.70;42.90
16404;DHT22;8311;50.158;8.642;2022-08-25T11:23:58;28.70;43.00
16404;DHT22;8311;50.158;8.642;2022-08-25T11:26:57;28.70;42.90
16404;DHT22;8311;50.158;8.642;2022-08-25T11:30:00;28.70;42.90
16404;DHT22;8311;50.158;8.642;2022-08-25T11:32:58;28.70;43.00
16404;DHT22;8311;50.158;8.642;2022-08-25T11:35:55;28.70;43.10
16404;DHT22;8311;50.158;8.642;2022-08-25T11:39:08;28.70;43.10
16404;DHT22;8311;50.158;8.642;2022-08-25T11:42:11;28.80;43.30
16404;DHT22;8311;50.158;8.642;2022-08-25T11:45:12;28.80;43.20
16404;DHT22;8311;50.158;8.642;2022-08-25T11:48:20;28.80;43.10
16404;DHT22;8311;50.158;8.642;2022-08-25T11:51:29;28.80;43.10
16404;DHT22;8311;50.158;8.642;2022-08-25T11:54:33;28.80;43.00
16404;DHT22;8311;50.158;8.642;2022-08-25T11:57:27;28.80;42.70
16404;DHT22;8311;50.158;8.642;2022-08-25T12:00:38;28.80;42.70
16404;DHT22;8311;50.158;8.642;2022-08-25T12:04:09;28.70;42.60
16404;DHT22;8311;50.158;8.642;2022-08-25T12:07:24;28.70;42.50
16404;DHT22;8311;50.158;8.642;2022-08-25T12:10:20;28.70;42.40
16404;DHT22;8311;50.158;8.642;2022-08-25T12:16:40;28.70;42.40
16404;DHT22;8311;50.158;8.642;2022-08-25T12:19:56;28.70;42.30
16404;DHT22;8311;50.158;8.642;2022-08-25T12:22:55;28.70;42.10
16404;DHT22;8311;50.158;8.642;2022-08-25T12:25:52;28.70;42.10
16404;DHT22;8311;50.158;8.642;2022-08-25T12:28:58;28.70;42.00
16404;DHT22;8311;50.158;8.642;2022-08-25T12:32:09;28.70;42.00
16404;DHT22;8311;50.158;8.642;2022-08-25T12:35:25;28.70;42.00
16404;DHT22;8311;50.158;8.642;2022-08-25T12:38:29;28.80;41.80
16404;DHT22;8311;50.158;8.642;2022-08-25T12:41:27;28.70;41.90
16404;DHT22;8311;50.158;8.642;2022-08-25T12:44:40;28.80;41.90
16404;DHT22;8311;50.158;8.642;2022-08-25T12:47:35;28.70;41.90
16404;DHT22;8311;50.158;8.642;2022-08-25T12:50:37;28.80;42.00
16404;DHT22;8311;50.158;8.642;2022-08-25T12:53:36;28.80;42.00
16404;DHT22;8311;50.158;8.642;2022-08-25T12:56:35;28.80;42.00
16404;DHT22;8311;50.158;8.642;2022-08-25T12:59:36;28.80;41.90
16404;DHT22;8311;50.158;8.642;2022-08-25T13:06:23;28.80;41.90
16404;DHT22;8311;50.158;8.642;2022-08-25T13:09:53;28.70;41.80
16404;DHT22;8311;50.158;8.642;2022-08-25T13:12:59;28.70;41.80
16404;DHT22;8311;50.158;8.642;2022-08-25T13:16:00;28.70;41.70
16404;DHT22;8311;50.158;8.642;2022-08-25T13:18:57;28.70;41.70
16404;DHT22;8311;50.158;8.642;2022-08-25T13:21:53;28.70;41.50
16404;DHT22;8311;50.158;8.642;2022-08-25T13:24:49;28.70;41.60
16404;DHT22;8311;50.158;8.642;2022-08-25T13:27:47;28.70;41.60
16404;DHT22;8311;50.158;8.642;2022-08-25T13:30:44;28.70;41.60
16404;DHT22;8311;50.158;8.642;2022-08-25T13:33:37;28.70;41.50
16404;DHT22;8311;50.158;8.642;2022-08-25T13:36:45;28.60;41.70
16404;DHT22;8311;50.158;8.642;2022-08-25T13:40:07;28.70;41.80
16404;DHT22;8311;50.158;8.642;2022-08-25T13:43:04;28.70;41.80
16404;DHT22;8311;50.158;8.642;2022-08-25T13:46:00;28.70;41.80
16404;DHT22;8311;50.158;8.642;2022-08-25T13:49:02;28.70;41.80
16404;DHT22;8311;50.158;8.642;2022-08-25T13:51:56;28.70;41.80
16404;DHT22;8311;50.158;8.642;2022-08-25T13:54:49;28.70;41.80
16404;DHT22;8311;50.158;8.642;2022-08-25T13:57:43;28.70;41.70
16404;DHT22;8311;50.158;8.642;2022-08-25T14:00:42;28.70;41.70
16404;DHT22;8311;50.158;8.642;2022-08-25T14:03:41;28.70;41.70
16404;DHT22;8311;50.158;8.642;2022-08-25T14:06:36;28.60;41.80
16404;DHT22;8311;50.158;8.642;2022-08-25T14:09:38;28.60;41.80
16404;DHT22;8311;50.158;8.642;2022-08-25T14:12:35;28.60;41.90
16404;DHT22;8311;50.158;8.642;2022-08-25T14:15:30;28.60;41.80
16404;DHT22;8311;50.158;8.642;2022-08-25T14:18:29;28.60;41.50
16404;DHT22;8311;50.158;8.642;2022-08-25T14:21:28;28.60;41.50
16404;DHT22;8311;50.158;8.642;2022-08-25T14:24:22;28.60;41.40
16404;DHT22;8311;50.158;8.642;2022-08-25T14:27:15;28.70;41.60
16404;DHT22;8311;50.158;8.642;2022-08-25T14:30:12;28.60;41.50
16404;DHT22;8311;50.158;8.642;2022-08-25T14:33:06;28.60;41.30
16404;DHT22;8311;50.158;8.642;2022-08-25T14:36:00;28.60;41.30
16404;DHT22;8311;50.158;8.642;2022-08-25T14:38:58;28.60;41.40
16404;DHT22;8311;50.158;8.642;2022-08-25T14:41:59;28.60;41.40
16404;DHT22;8311;50.158;8.642;2022-08-25T14:44:52;28.60;41.40
16404;DHT22;8311;50.158;8.642;2022-08-25T14:47:47;28.60;41.20
16404;DHT22;8311;50.158;8.642;2022-08-25T14:50:40;28.50;41.10
16404;DHT22;8311;50.158;8.642;2022-08-25T14:53:33;28.60;41.30
16404;DHT22;8311;50.158;8.642;2022-08-25T14:56:28;28.50;41.30
16404;DHT22;8311;50.158;8.642;2022-08-25T14:59:22;28.50;41.30
16404;DHT22;8311;50.158;8.642;2022-08-25T15:02:20;28.50;41.40
16404;DHT22;8311;50.158;8.642;2022-08-25T15:05:23;28.50;41.30
16404;DHT22;8311;50.158;8.642;2022-08-25T15:08:20;28.50;41.30
16404;DHT22;8311;50.158;8.642;2022-08-25T15:11:32;28.50;41.40
16404;DHT22;8311;50.158;8.642;2022-08-25T15:14:25;28.50;41.40
16404;DHT22;8311;50.158;8.642;2022-08-25T15:17:24;28.50;41.30
16404;DHT22;8311;50.158;8.642;2022-08-25T15:20:17;28.60;41.50
16404;DHT22;8311;50.158;8.642;2022-08-25T15:23:11;28.60;41.60
16404;DHT22;8311;50.158;8.642;2022-08-25T15:26:05;28.50;41.50
16404;DHT22;8311;50.158;8.642;2022-08-25T15:29:02;28.50;41.40
16404;DHT22;8311;50.158;8.642;2022-08-25T15:31:56;28.50;41.40
16404;DHT22;8311;50.158;8.642;2022-08-25T15:34:51;28.50;41.50
16404;DHT22;8311;50.158;8.642;2022-08-25T15:37:43;28.50;41.50
16404;DHT22;8311;50.158;8.642;2022-08-25T15:40:38;28.50;41.50
16404;DHT22;8311;50.158;8.642;2022-08-25T15:43:31;28.50;41.40
16404;DHT22;8311;50.158;8.642;2022-08-25T15:46:28;28.50;41.50
16404;DHT22;8311;50.158;8.642;2022-08-25T15:49:22;28.50;41.60
16404;DHT22;8311;50.158;8.642;2022-08-25T15:52:15;28.50;41.60
16404;DHT22;8311;50.158;8.642;2022-08-25T15:55:10;28.50;41.60
16404;DHT22;8311;50.158;8.642;2022-08-25T15:58:04;28.50;41.60
16404;DHT22;8311;50.158;8.642;2022-08-25T16:01:00;28.40;41.60
16404;DHT22;8311;50.158;8.642;2022-08-25T16:03:54;28.50;41.70
16404;DHT22;8311;50.158;8.642;2022-08-25T16:06:47;28.50;41.60
16404;DHT22;8311;50.158;8.642;2022-08-25T16:09:41;28.50;41.60
16404;DHT22;8311;50.158;8.642;2022-08-25T16:12:34;28.50;41.60
16404;DHT22;8311;50.158;8.642;2022-08-25T16:15:29;28.50;41.70
16404;DHT22;8311;50.158;8.642;2022-08-25T16:18:22;28.50;41.60
16404;DHT22;8311;50.158;8.642;2022-08-25T16:21:19;28.40;41.60
16404;DHT22;8311;50.158;8.642;2022-08-25T16:24:16;28.40;41.70
16404;DHT22;8311;50.158;8.642;2022-08-25T16:27:10;28.40;41.70
16404;DHT22;8311;50.158;8.642;2022-08-25T16:30:04;28.40;41.60
16404;DHT22;8311;50.158;8.642;2022-08-25T16:32:58;28.40;41.60
16404;DHT22;8311;50.158;8.642;2022-08-25T16:35:58;28.40;41.60
16404;DHT22;8311;50.158;8.642;2022-08-25T16:38:56;28.40;41.60
16404;DHT22;8311;50.158;8.642;2022-08-25T16:41:52;28.40;41.70
16404;DHT22;8311;50.158;8.642;2022-08-25T16:44:46;28.40;41.70
16404;DHT22;8311;50.158;8.642;2022-08-25T16:47:44;28.40;41.70
16404;DHT22;8311;50.158;8.642;2022-08-25T16:50:39;28.40;41.60
16404;DHT22;8311;50.158;8.642;2022-08-25T16:53:32;28.40;41.60
16404;DHT22;8311;50.158;8.642;2022-08-25T16:56:44;28.40;41.60
16404;DHT22;8311;50.158;8.642;2022-08-25T16:59:44;28.40;41.70
16404;DHT22;8311;50.158;8.642;2022-08-25T17:02:38;28.40;41.50
16404;DHT22;8311;50.158;8.642;2022-08-25T17:05:39;28.40;41.50
16404;DHT22;8311;50.158;8.642;2022-08-25T17:08:34;28.40;41.40
16404;DHT22;8311;50.158;8.642;2022-08-25T17:11:29;28.40;41.40
16404;DHT22;8311;50.158;8.642;2022-08-25T17:14:25;28.30;41.40
16404;DHT22;8311;50.158;8.642;2022-08-25T17:17:19;28.40;41.60
16404;DHT22;8311;50.158;8.642;2022-08-25T17:20:18;28.30;41.40
16404;DHT22;8311;50.158;8.642;2022-08-25T17:23:12;28.30;41.40
16404;DHT22;8311;50.158;8.642;2022-08-25T17:26:07;28.30;41.40
16404;DHT22;8311;50.158;8.642;2022-08-25T17:29:08;28.30;41.40
16404;DHT22;8311;50.158;8.642;2022-08-25T17:32:03;28.30;41.40
16404;DHT22;8311;50.158;8.642;2022-08-25T17:34:57;28.30;41.40
16404;DHT22;8311;50.158;8.642;2022-08-25T17:37:49;28.30;41.40
16404;DHT22;8311;50.158;8.642;2022-08-25T17:40:44;28.30;41.50
16404;DHT22;8311;50.158;8.642;2022-08-25T17:43:39;28.30;41.50
16404;DHT22;8311;50.158;8.642;2022-08-25T17:46:33;28.30;41.60
16404;DHT22;8311;50.158;8.642;2022-08-25T17:49:28;28.30;41.60
16404;DHT22;8311;50.158;8.642;2022-08-25T17:52:22;28.30;41.70
16404;DHT22;8311;50.158;8.642;2022-08-25T17:55:17;28.30;41.70
16404;DHT22;8311;50.158;8.642;2022-08-25T17:58:14;28.30;41.70
16404;DHT22;8311;50.158;8.642;2022-08-25T18:01:14;28.30;41.70
16404;DHT22;8311;50.158;8.642;2022-08-25T18:04:09;28.30;41.70
16404;DHT22;8311;50.158;8.642;2022-08-25T18:07:10;28.30;41.80
16404;DHT22;8311;50.158;8.642;2022-08-25T18:10:06;28.30;41.80
16404;DHT22;8311;50.158;8.642;2022-08-25T18:13:00;28.30;41.80
16404;DHT22;8311;50.158;8.642;2022-08-25T18:15:54;28.30;41.80
16404;DHT22;8311;50.158;8.642;2022-08-25T18:18:47;28.30;41.90
16404;DHT22;8311;50.158;8.642;2022-08-25T18:21:42;28.30;41.90
16404;DHT22;8311;50.158;8.642;2022-08-25T18:24:37;28.30;42.00
16404;DHT22;8311;50.158;8.642;2022-08-25T18:27:31;28.30;42.00
16404;DHT22;8311;50.158;8.642;2022-08-25T18:30:26;28.30;42.00
16404;DHT22;8311;50.158;8.642;2022-08-25T18:33:19;28.30;41.90
16404;DHT22;8311;50.158;8.642;2022-08-25T18:36:12;28.30;42.00
16404;DHT22;8311;50.158;8.642;2022-08-25T18:39:06;28.30;42.00
16404;DHT22;8311;50.158;8.642;2022-08-25T18:42:18;28.30;42.00
16404;DHT22;8311;50.158;8.642;2022-08-25T18:45:12;28.30;42.00
16404;DHT22;8311;50.158;8.642;2022-08-25T18:48:05;28.20;42.00
16404;DHT22;8311;50.158;8.642;2022-08-25T18:50:59;28.30;42.10
16404;DHT22;8311;50.158;8.642;2022-08-25T18:53:56;28.30;42.10
16404;DHT22;8311;50.158;8.642;2022-08-25T18:56:52;28.30;42.10
16404;DHT22;8311;50.158;8.642;2022-08-25T18:59:47;28.30;42.10
16404;DHT22;8311;50.158;8.642;2022-08-25T19:02:43;28.30;42.10
16404;DHT22;8311;50.158;8.642;2022-08-25T19:05:41;28.20;42.00